sensor_id;sensor_type;location;lat;lon;timestamp;P1;durP1;ratioP1;P2;durP2;ratioP2
64031;SDS011;50278;47.796;11.968;2023-02-28T00:01:24;5.80;;;2.95;;
64031;SDS011;50278;47.796;11.968;2023-02-28T00:03:50;4.10;;;3.20;;
64031;SDS011;50278;47.796;11.968;2023-02-28T00:06:16;4.53;;;3.08;;
64031;SDS011;50278;47.796;11.968;2023-02-28T00:08:42;4.78;;;3.10;;
64031;SDS011;50278;47.796;11.968;2023-02-28T00:11:09;4.53;;;3.15;;
64031;SDS011;50278;47.796;11.968;2023-02-28T00:13:37;5.60;;;3.70;;
64031;SDS011;50278;47.796;11.968;2023-02-28T00:16:08;5.45;;;3.63;;
64031;SDS011;50278;47.796;11.968;2023-02-28T00:18:36;5.63;;;3.05;;
64031;SDS011;50278;47.796;11.968;2023-02-28T00:21:02;5.72;;;4.30;;
64031;SDS011;50278;47.796;11.968;2023-02-28T00:23:28;5.32;;;3.78;;
64031;SDS011;50278;47.796;11.968;2023-02-28T00:25:54;7.43;;;4.32;;
64031;SDS011;50278;47.796;11.968;2023-02-28T00:28:20;5.55;;;4.05;;
64031;SDS011;50278;47.796;11.968;2023-02-28T00:30:46;5.60;;;3.97;;
64031;SDS011;50278;47.796;11.968;2023-02-28T00:33:12;6.78;;;4.32;;
64031;SDS011;50278;47.796;11.968;2023-02-28T00:35:37;6.50;;;4.55;;
64031;SDS011;50278;47.796;11.968;2023-02-28T00:38:03;5.50;;;4.03;;
64031;SDS011;50278;47.796;11.968;2023-02-28T00:40:28;6.63;;;4.47;;
64031;SDS011;50278;47.796;11.968;2023-02-28T00:42:54;7.18;;;4.32;;
64031;SDS011;50278;47.796;11.968;2023-02-28T00:45:19;6.85;;;4.38;;
64031;SDS011;50278;47.796;11.968;2023-02-28T00:47:45;6.53;;;4.47;;
64031;SDS011;50278;47.796;11.968;2023-02-28T00:50:14;8.85;;;5.30;;
64031;SDS011;50278;47.796;11.968;2023-02-28T00:52:44;6.47;;;4.43;;
64031;SDS011;50278;47.796;11.968;2023-02-28T00:55:09;8.35;;;4.72;;
64031;SDS011;50278;47.796;11.968;2023-02-28T00:57:35;6.38;;;4.60;;
64031;SDS011;50278;47.796;11.968;2023-02-28T01:00:00;6.32;;;4.10;;
64031;SDS011;50278;47.796;11.968;2023-02-28T01:02:27;7.22;;;4.65;;
64031;SDS011;50278;47.796;11.968;2023-02-28T01:04:52;6.50;;;4.65;;
64031;SDS011;50278;47.796;11.968;2023-02-28T01:07:18;7.65;;;5.07;;
64031;SDS011;50278;47.796;11.968;2023-02-28T01:09:45;8.85;;;5.03;;
64031;SDS011;50278;47.796;11.968;2023-02-28T01:12:11;7.45;;;4.93;;
64031;SDS011;50278;47.796;11.968;2023-02-28T01:14:36;8.25;;;4.95;;
64031;SDS011;50278;47.796;11.968;2023-02-28T01:17:02;7.40;;;4.88;;
64031;SDS011;50278;47.796;11.968;2023-02-28T01:19:28;9.18;;;5.43;;
64031;SDS011;50278;47.796;11.968;2023-02-28T01:21:53;8.55;;;5.13;;
64031;SDS011;50278;47.796;11.968;2023-02-28T01:24:19;8.27;;;5.20;;
64031;SDS011;50278;47.796;11.968;2023-02-28T01:26:44;9.35;;;5.60;;
64031;SDS011;50278;47.796;11.968;2023-02-28T01:29:10;6.40;;;4.68;;
64031;SDS011;50278;47.796;11.968;2023-02-28T01:31:35;6.75;;;4.20;;
64031;SDS011;50278;47.796;11.968;2023-02-28T01:34:01;8.45;;;4.72;;
64031;SDS011;50278;47.796;11.968;2023-02-28T01:36:29;8.18;;;4.95;;
64031;SDS011;50278;47.796;11.968;2023-02-28T01:38:54;6.65;;;5.03;;
64031;SDS011;50278;47.796;11.968;2023-02-28T01:41:22;8.43;;;5.07;;
64031;SDS011;50278;47.796;11.968;2023-02-28T01:46:14;6.15;;;4.78;;
64031;SDS011;50278;47.796;11.968;2023-02-28T01:48:45;8.68;;;4.88;;
64031;SDS011;50278;47.796;11.968;2023-02-28T01:51:24;6.15;;;4.53;;
64031;SDS011;50278;47.796;11.968;2023-02-28T01:53:55;7.95;;;4.97;;
64031;SDS011;50278;47.796;11.968;2023-02-28T01:56:26;7.82;;;4.75;;
64031;SDS011;50278;47.796;11.968;2023-02-28T01:58:54;8.07;;;4.93;;
64031;SDS011;50278;47.796;11.968;2023-02-28T02:01:22;7.45;;;5.22;;
64031;SDS011;50278;47.796;11.968;2023-02-28T02:03:53;8.85;;;4.47;;
64031;SDS011;50278;47.796;11.968;2023-02-28T02:08:50;8.18;;;5.20;;
64031;SDS011;50278;47.796;11.968;2023-02-28T02:11:17;5.82;;;3.97;;
64031;SDS011;50278;47.796;11.968;2023-02-28T02:16:28;6.25;;;3.72;;
64031;SDS011;50278;47.796;11.968;2023-02-28T02:32:53;6.60;;;4.13;;
64031;SDS011;50278;47.796;11.968;2023-02-28T02:35:59;6.57;;;4.57;;
64031;SDS011;50278;47.796;11.968;2023-02-28T02:38:49;5.75;;;3.72;;
64031;SDS011;50278;47.796;11.968;2023-02-28T02:41:32;6.03;;;4.25;;
64031;SDS011;50278;47.796;11.968;2023-02-28T02:44:21;5.90;;;4.15;;
64031;SDS011;50278;47.796;11.968;2023-02-28T02:46:57;6.88;;;4.50;;
64031;SDS011;50278;47.796;11.968;2023-02-28T02:49:30;7.10;;;4.50;;
64031;SDS011;50278;47.796;11.968;2023-02-28T02:52:00;7.35;;;4.68;;
64031;SDS011;50278;47.796;11.968;2023-02-28T02:54:32;7.28;;;5.05;;
64031;SDS011;50278;47.796;11.968;2023-02-28T02:57:01;7.93;;;4.72;;
64031;SDS011;50278;47.796;11.968;2023-02-28T02:59:30;7.18;;;4.10;;
64031;SDS011;50278;47.796;11.968;2023-02-28T03:02:00;6.80;;;4.30;;
64031;SDS011;50278;47.796;11.968;2023-02-28T03:04:29;6.57;;;3.90;;
64031;SDS011;50278;47.796;11.968;2023-02-28T03:06:58;8.95;;;4.57;;
64031;SDS011;50278;47.796;11.968;2023-02-28T03:09:24;5.57;;;3.90;;
64031;SDS011;50278;47.796;11.968;2023-02-28T03:11:50;6.22;;;3.97;;
64031;SDS011;50278;47.796;11.968;2023-02-28T03:19:47;6.93;;;4.00;;
64031;SDS011;50278;47.796;11.968;2023-02-28T03:22:28;6.80;;;4.50;;
64031;SDS011;50278;47.796;11.968;2023-02-28T03:25:20;7.55;;;4.93;;
64031;SDS011;50278;47.796;11.968;2023-02-28T03:28:00;7.60;;;5.00;;
64031;SDS011;50278;47.796;11.968;2023-02-28T03:33:32;6.90;;;4.65;;
64031;SDS011;50278;47.796;11.968;2023-02-28T03:36:10;6.68;;;4.28;;
64031;SDS011;50278;47.796;11.968;2023-02-28T03:38:49;7.50;;;4.80;;
64031;SDS011;50278;47.796;11.968;2023-02-28T03:41:21;7.28;;;4.50;;
64031;SDS011;50278;47.796;11.968;2023-02-28T03:43:50;7.25;;;4.85;;
64031;SDS011;50278;47.796;11.968;2023-02-28T03:46:21;7.38;;;4.70;;
64031;SDS011;50278;47.796;11.968;2023-02-28T03:49:34;6.85;;;3.78;;
64031;SDS011;50278;47.796;11.968;2023-02-28T03:51:42;8.52;;;4.32;;
64031;SDS011;50278;47.796;11.968;2023-02-28T03:54:12;6.90;;;4.68;;
64031;SDS011;50278;47.796;11.968;2023-02-28T03:56:43;6.93;;;4.38;;
64031;SDS011;50278;47.796;11.968;2023-02-28T03:59:20;7.47;;;4.43;;
64031;SDS011;50278;47.796;11.968;2023-02-28T04:01:52;8.73;;;5.40;;
64031;SDS011;50278;47.796;11.968;2023-02-28T04:04:20;7.03;;;4.80;;
64031;SDS011;50278;47.796;11.968;2023-02-28T04:06:46;6.93;;;4.75;;
64031;SDS011;50278;47.796;11.968;2023-02-28T04:09:15;10.70;;;4.85;;
64031;SDS011;50278;47.796;11.968;2023-02-28T04:14:08;6.28;;;4.50;;
64031;SDS011;50278;47.796;11.968;2023-02-28T04:16:36;7.85;;;5.22;;
64031;SDS011;50278;47.796;11.968;2023-02-28T04:19:03;6.68;;;4.55;;
64031;SDS011;50278;47.796;11.968;2023-02-28T04:24:06;6.75;;;4.47;;
64031;SDS011;50278;47.796;11.968;2023-02-28T04:26:39;8.32;;;4.80;;
64031;SDS011;50278;47.796;11.968;2023-02-28T04:29:05;9.32;;;4.93;;
64031;SDS011;50278;47.796;11.968;2023-02-28T04:31:32;5.80;;;3.95;;
64031;SDS011;50278;47.796;11.968;2023-02-28T04:33:58;7.97;;;4.65;;
64031;SDS011;50278;47.796;11.968;2023-02-28T04:36:24;7.18;;;4.53;;
64031;SDS011;50278;47.796;11.968;2023-02-28T04:38:49;7.32;;;5.10;;
64031;SDS011;50278;47.796;11.968;2023-02-28T04:41:15;6.97;;;4.82;;
64031;SDS011;50278;47.796;11.968;2023-02-28T04:43:41;7.28;;;5.22;;
64031;SDS011;50278;47.796;11.968;2023-02-28T04:46:07;8.63;;;5.43;;
64031;SDS011;50278;47.796;11.968;2023-02-28T04:48:34;8.98;;;6.10;;
64031;SDS011;50278;47.796;11.968;2023-02-28T04:51:02;9.38;;;5.50;;
64031;SDS011;50278;47.796;11.968;2023-02-28T04:53:33;5.30;;;3.70;;
64031;SDS011;50278;47.796;11.968;2023-02-28T04:55:59;7.47;;;5.10;;
64031;SDS011;50278;47.796;11.968;2023-02-28T04:58:25;8.50;;;5.93;;
64031;SDS011;50278;47.796;11.968;2023-02-28T05:00:53;7.88;;;5.15;;
64031;SDS011;50278;47.796;11.968;2023-02-28T05:03:26;8.13;;;5.57;;
64031;SDS011;50278;47.796;11.968;2023-02-28T05:05:51;8.07;;;5.35;;
64031;SDS011;50278;47.796;11.968;2023-02-28T05:08:17;8.80;;;5.93;;
64031;SDS011;50278;47.796;11.968;2023-02-28T05:10:42;7.60;;;4.82;;
64031;SDS011;50278;47.796;11.968;2023-02-28T05:13:09;8.13;;;5.47;;
64031;SDS011;50278;47.796;11.968;2023-02-28T05:15:37;10.85;;;6.72;;
64031;SDS011;50278;47.796;11.968;2023-02-28T05:18:03;8.18;;;6.03;;
64031;SDS011;50278;47.796;11.968;2023-02-28T05:20:28;7.50;;;4.93;;
64031;SDS011;50278;47.796;11.968;2023-02-28T05:22:54;9.10;;;5.75;;
64031;SDS011;50278;47.796;11.968;2023-02-28T05:25:20;10.00;;;5.65;;
64031;SDS011;50278;47.796;11.968;2023-02-28T05:27:47;8.50;;;5.40;;
64031;SDS011;50278;47.796;11.968;2023-02-28T05:30:12;8.55;;;5.80;;
64031;SDS011;50278;47.796;11.968;2023-02-28T05:32:38;8.35;;;5.55;;
64031;SDS011;50278;47.796;11.968;2023-02-28T05:35:08;8.82;;;5.72;;
64031;SDS011;50278;47.796;11.968;2023-02-28T05:37:37;10.90;;;6.38;;
64031;SDS011;50278;47.796;11.968;2023-02-28T05:40:05;8.50;;;5.85;;
64031;SDS011;50278;47.796;11.968;2023-02-28T05:42:32;8.15;;;5.80;;
64031;SDS011;50278;47.796;11.968;2023-02-28T05:44:58;8.95;;;5.60;;
64031;SDS011;50278;47.796;11.968;2023-02-28T05:47:24;8.73;;;5.90;;
64031;SDS011;50278;47.796;11.968;2023-02-28T05:49:49;7.57;;;4.95;;
64031;SDS011;50278;47.796;11.968;2023-02-28T05:52:15;8.52;;;6.10;;
64031;SDS011;50278;47.796;11.968;2023-02-28T05:54:40;11.27;;;6.82;;
64031;SDS011;50278;47.796;11.968;2023-02-28T05:57:06;8.48;;;6.13;;
64031;SDS011;50278;47.796;11.968;2023-02-28T05:59:32;9.68;;;6.50;;
64031;SDS011;50278;47.796;11.968;2023-02-28T06:01:58;9.75;;;6.10;;
64031;SDS011;50278;47.796;11.968;2023-02-28T06:04:24;10.60;;;6.55;;
64031;SDS011;50278;47.796;11.968;2023-02-28T06:06:49;11.48;;;7.18;;
64031;SDS011;50278;47.796;11.968;2023-02-28T06:09:15;16.27;;;8.65;;
64031;SDS011;50278;47.796;11.968;2023-02-28T06:11:42;17.45;;;9.85;;
64031;SDS011;50278;47.796;11.968;2023-02-28T06:14:12;60.85;;;24.58;;
64031;SDS011;50278;47.796;11.968;2023-02-28T06:16:40;45.10;;;17.40;;
64031;SDS011;50278;47.796;11.968;2023-02-28T06:19:06;13.32;;;7.43;;
64031;SDS011;50278;47.796;11.968;2023-02-28T06:21:31;18.58;;;9.20;;
64031;SDS011;50278;47.796;11.968;2023-02-28T06:23:57;7.60;;;5.45;;
64031;SDS011;50278;47.796;11.968;2023-02-28T06:26:23;9.07;;;5.65;;
64031;SDS011;50278;47.796;11.968;2023-02-28T06:28:50;12.85;;;6.00;;
64031;SDS011;50278;47.796;11.968;2023-02-28T06:31:16;9.45;;;6.25;;
64031;SDS011;50278;47.796;11.968;2023-02-28T06:33:42;10.90;;;6.40;;
64031;SDS011;50278;47.796;11.968;2023-02-28T06:36:09;10.40;;;6.43;;
64031;SDS011;50278;47.796;11.968;2023-02-28T06:38:36;12.35;;;7.55;;
64031;SDS011;50278;47.796;11.968;2023-02-28T06:41:02;11.77;;;7.90;;
64031;SDS011;50278;47.796;11.968;2023-02-28T06:43:29;12.35;;;7.53;;
64031;SDS011;50278;47.796;11.968;2023-02-28T06:45:57;11.88;;;7.72;;
64031;SDS011;50278;47.796;11.968;2023-02-28T06:48:25;13.68;;;8.82;;
64031;SDS011;50278;47.796;11.968;2023-02-28T06:50:51;10.13;;;6.93;;
64031;SDS011;50278;47.796;11.968;2023-02-28T06:53:17;8.77;;;6.05;;
64031;SDS011;50278;47.796;11.968;2023-02-28T06:55:42;10.32;;;6.28;;
64031;SDS011;50278;47.796;11.968;2023-02-28T06:58:08;8.50;;;6.05;;
64031;SDS011;50278;47.796;11.968;2023-02-28T07:00:43;9.88;;;6.78;;
64031;SDS011;50278;47.796;11.968;2023-02-28T07:03:10;11.13;;;6.22;;
64031;SDS011;50278;47.796;11.968;2023-02-28T07:05:37;10.35;;;6.40;;
64031;SDS011;50278;47.796;11.968;2023-02-28T07:08:03;8.38;;;6.72;;
64031;SDS011;50278;47.796;11.968;2023-02-28T07:10:30;14.43;;;7.05;;
64031;SDS011;50278;47.796;11.968;2023-02-28T07:12:55;7.75;;;5.40;;
64031;SDS011;50278;47.796;11.968;2023-02-28T07:15:21;8.77;;;6.38;;
64031;SDS011;50278;47.796;11.968;2023-02-28T07:17:46;11.93;;;8.88;;
64031;SDS011;50278;47.796;11.968;2023-02-28T07:20:12;8.43;;;6.32;;
64031;SDS011;50278;47.796;11.968;2023-02-28T07:22:38;9.25;;;5.95;;
64031;SDS011;50278;47.796;11.968;2023-02-28T07:25:04;9.38;;;5.95;;
64031;SDS011;50278;47.796;11.968;2023-02-28T07:27:30;7.13;;;5.53;;
64031;SDS011;50278;47.796;11.968;2023-02-28T07:29:56;8.52;;;5.80;;
64031;SDS011;50278;47.796;11.968;2023-02-28T07:32:21;8.40;;;6.30;;
64031;SDS011;50278;47.796;11.968;2023-02-28T07:34:47;9.43;;;6.22;;
64031;SDS011;50278;47.796;11.968;2023-02-28T07:37:13;10.60;;;6.80;;
64031;SDS011;50278;47.796;11.968;2023-02-28T07:39:39;10.48;;;7.22;;
64031;SDS011;50278;47.796;11.968;2023-02-28T07:42:07;11.93;;;7.30;;
64031;SDS011;50278;47.796;11.968;2023-02-28T07:44:35;9.25;;;6.60;;
64031;SDS011;50278;47.796;11.968;2023-02-28T07:47:05;10.85;;;7.45;;
64031;SDS011;50278;47.796;11.968;2023-02-28T07:49:35;10.45;;;7.40;;
64031;SDS011;50278;47.796;11.968;2023-02-28T07:52:02;9.38;;;7.13;;
64031;SDS011;50278;47.796;11.968;2023-02-28T07:54:29;8.65;;;6.78;;
64031;SDS011;50278;47.796;11.968;2023-02-28T07:56:55;8.40;;;6.63;;
64031;SDS011;50278;47.796;11.968;2023-02-28T07:59:20;9.02;;;6.93;;
64031;SDS011;50278;47.796;11.968;2023-02-28T08:01:46;8.30;;;6.38;;
64031;SDS011;50278;47.796;11.968;2023-02-28T08:04:11;9.68;;;6.43;;
64031;SDS011;50278;47.796;11.968;2023-02-28T08:06:37;9.48;;;7.32;;
64031;SDS011;50278;47.796;11.968;2023-02-28T08:09:02;9.40;;;7.18;;
64031;SDS011;50278;47.796;11.968;2023-02-28T08:11:28;11.57;;;7.88;;
64031;SDS011;50278;47.796;11.968;2023-02-28T08:13:54;7.25;;;6.20;;
64031;SDS011;50278;47.796;11.968;2023-02-28T08:16:19;7.97;;;6.35;;
64031;SDS011;50278;47.796;11.968;2023-02-28T08:18:50;11.85;;;7.85;;
64031;SDS011;50278;47.796;11.968;2023-02-28T08:21:16;8.65;;;6.95;;
64031;SDS011;50278;47.796;11.968;2023-02-28T08:23:43;8.10;;;6.30;;
64031;SDS011;50278;47.796;11.968;2023-02-28T08:26:08;8.38;;;6.85;;
64031;SDS011;50278;47.796;11.968;2023-02-28T08:28:34;8.30;;;7.05;;
64031;SDS011;50278;47.796;11.968;2023-02-28T08:30:59;26.10;;;17.75;;
64031;SDS011;50278;47.796;11.968;2023-02-28T08:33:26;10.52;;;6.88;;
64031;SDS011;50278;47.796;11.968;2023-02-28T08:35:53;8.57;;;6.15;;
64031;SDS011;50278;47.796;11.968;2023-02-28T08:38:20;6.65;;;5.32;;
64031;SDS011;50278;47.796;11.968;2023-02-28T08:40:45;7.50;;;5.57;;
64031;SDS011;50278;47.796;11.968;2023-02-28T08:43:11;7.07;;;6.13;;
64031;SDS011;50278;47.796;11.968;2023-02-28T08:45:36;8.00;;;6.05;;
64031;SDS011;50278;47.796;11.968;2023-02-28T08:48:02;7.03;;;5.68;;
64031;SDS011;50278;47.796;11.968;2023-02-28T08:50:28;7.45;;;6.40;;
64031;SDS011;50278;47.796;11.968;2023-02-28T08:52:53;9.10;;;7.05;;
64031;SDS011;50278;47.796;11.968;2023-02-28T08:55:19;7.65;;;6.28;;
64031;SDS011;50278;47.796;11.968;2023-02-28T08:57:44;10.07;;;8.02;;
64031;SDS011;50278;47.796;11.968;2023-02-28T09:00:10;8.98;;;6.57;;
64031;SDS011;50278;47.796;11.968;2023-02-28T09:02:38;8.93;;;6.22;;
64031;SDS011;50278;47.796;11.968;2023-02-28T09:05:05;7.72;;;5.65;;
64031;SDS011;50278;47.796;11.968;2023-02-28T09:07:31;6.47;;;5.68;;
64031;SDS011;50278;47.796;11.968;2023-02-28T09:09:56;7.60;;;6.03;;
64031;SDS011;50278;47.796;11.968;2023-02-28T09:12:23;8.00;;;6.10;;
64031;SDS011;50278;47.796;11.968;2023-02-28T09:14:50;8.20;;;6.43;;
64031;SDS011;50278;47.796;11.968;2023-02-28T09:17:16;8.55;;;6.38;;
64031;SDS011;50278;47.796;11.968;2023-02-28T09:19:42;8.70;;;5.75;;
64031;SDS011;50278;47.796;11.968;2023-02-28T09:22:08;9.75;;;6.22;;
64031;SDS011;50278;47.796;11.968;2023-02-28T09:24:35;11.40;;;6.75;;
64031;SDS011;50278;47.796;11.968;2023-02-28T09:27:02;8.48;;;6.22;;
64031;SDS011;50278;47.796;11.968;2023-02-28T09:29:27;8.85;;;6.25;;
64031;SDS011;50278;47.796;11.968;2023-02-28T09:31:53;8.52;;;5.88;;
64031;SDS011;50278;47.796;11.968;2023-02-28T09:34:18;9.15;;;7.03;;
64031;SDS011;50278;47.796;11.968;2023-02-28T09:36:45;9.15;;;6.55;;
64031;SDS011;50278;47.796;11.968;2023-02-28T09:39:10;8.02;;;6.43;;
64031;SDS011;50278;47.796;11.968;2023-02-28T09:41:39;7.72;;;6.50;;
64031;SDS011;50278;47.796;11.968;2023-02-28T09:44:20;9.45;;;7.50;;
64031;SDS011;50278;47.796;11.968;2023-02-28T09:46:55;9.07;;;6.90;;
64031;SDS011;50278;47.796;11.968;2023-02-28T09:49:27;7.97;;;6.38;;
64031;SDS011;50278;47.796;11.968;2023-02-28T09:52:02;7.90;;;5.88;;
64031;SDS011;50278;47.796;11.968;2023-02-28T09:54:34;7.55;;;6.15;;
64031;SDS011;50278;47.796;11.968;2023-02-28T09:57:08;10.45;;;7.22;;
64031;SDS011;50278;47.796;11.968;2023-02-28T10:05:48;8.65;;;6.28;;
64031;SDS011;50278;47.796;11.968;2023-02-28T10:08:29;8.07;;;6.38;;
64031;SDS011;50278;47.796;11.968;2023-02-28T10:11:22;8.23;;;6.90;;
64031;SDS011;50278;47.796;11.968;2023-02-28T10:13:55;11.23;;;7.00;;
64031;SDS011;50278;47.796;11.968;2023-02-28T10:16:32;10.73;;;7.78;;
64031;SDS011;50278;47.796;11.968;2023-02-28T10:21:38;10.60;;;6.82;;
64031;SDS011;50278;47.796;11.968;2023-02-28T10:26:48;9.45;;;6.85;;
64031;SDS011;50278;47.796;11.968;2023-02-28T10:29:17;7.20;;;5.97;;
64031;SDS011;50278;47.796;11.968;2023-02-28T10:31:43;10.57;;;7.03;;
64031;SDS011;50278;47.796;11.968;2023-02-28T10:34:10;9.88;;;6.85;;
64031;SDS011;50278;47.796;11.968;2023-02-28T10:36:37;9.63;;;7.03;;
64031;SDS011;50278;47.796;11.968;2023-02-28T10:39:33;9.25;;;6.75;;
64031;SDS011;50278;47.796;11.968;2023-02-28T10:42:28;9.60;;;6.88;;
64031;SDS011;50278;47.796;11.968;2023-02-28T10:45:10;9.13;;;6.40;;
64031;SDS011;50278;47.796;11.968;2023-02-28T10:47:42;8.40;;;7.15;;
64031;SDS011;50278;47.796;11.968;2023-02-28T10:50:27;9.10;;;7.50;;
64031;SDS011;50278;47.796;11.968;2023-02-28T10:53:00;8.52;;;6.95;;
64031;SDS011;50278;47.796;11.968;2023-02-28T10:55:33;8.85;;;7.13;;
64031;SDS011;50278;47.796;11.968;2023-02-28T10:57:58;9.68;;;7.78;;
64031;SDS011;50278;47.796;11.968;2023-02-28T11:00:24;11.00;;;7.60;;
64031;SDS011;50278;47.796;11.968;2023-02-28T11:02:51;10.98;;;7.80;;
64031;SDS011;50278;47.796;11.968;2023-02-28T11:05:22;10.45;;;7.95;;
64031;SDS011;50278;47.796;11.968;2023-02-28T11:08:02;10.05;;;7.55;;
64031;SDS011;50278;47.796;11.968;2023-02-28T11:10:39;9.98;;;8.05;;
64031;SDS011;50278;47.796;11.968;2023-02-28T11:13:15;10.13;;;8.80;;
64031;SDS011;50278;47.796;11.968;2023-02-28T11:15:46;10.05;;;8.15;;
64031;SDS011;50278;47.796;11.968;2023-02-28T11:18:21;10.70;;;7.85;;
64031;SDS011;50278;47.796;11.968;2023-02-28T11:20:54;9.93;;;8.27;;
64031;SDS011;50278;47.796;11.968;2023-02-28T11:23:23;10.32;;;7.90;;
64031;SDS011;50278;47.796;11.968;2023-02-28T11:25:53;8.63;;;7.72;;
64031;SDS011;50278;47.796;11.968;2023-02-28T11:28:23;8.82;;;7.88;;
64031;SDS011;50278;47.796;11.968;2023-02-28T11:33:45;12.02;;;9.07;;
64031;SDS011;50278;47.796;11.968;2023-02-28T11:36:25;9.75;;;7.95;;
64031;SDS011;50278;47.796;11.968;2023-02-28T11:38:54;11.38;;;8.63;;
64031;SDS011;50278;47.796;11.968;2023-02-28T11:46:53;10.52;;;8.75;;
64031;SDS011;50278;47.796;11.968;2023-02-28T11:50:26;12.35;;;8.98;;
64031;SDS011;50278;47.796;11.968;2023-02-28T11:55:20;10.52;;;9.32;;
64031;SDS011;50278;47.796;11.968;2023-02-28T11:57:53;10.60;;;9.07;;
64031;SDS011;50278;47.796;11.968;2023-02-28T12:00:53;10.52;;;8.05;;
64031;SDS011;50278;47.796;11.968;2023-02-28T12:06:38;9.75;;;8.68;;
64031;SDS011;50278;47.796;11.968;2023-02-28T12:09:32;11.30;;;8.60;;
64031;SDS011;50278;47.796;11.968;2023-02-28T12:17:43;13.10;;;10.10;;
64031;SDS011;50278;47.796;11.968;2023-02-28T12:20:37;11.57;;;10.13;;
64031;SDS011;50278;47.796;11.968;2023-02-28T12:28:30;11.07;;;9.85;;
64031;SDS011;50278;47.796;11.968;2023-02-28T12:31:01;11.95;;;9.60;;
64031;SDS011;50278;47.796;11.968;2023-02-28T12:33:35;12.05;;;9.90;;
64031;SDS011;50278;47.796;11.968;2023-02-28T12:36:08;13.27;;;9.00;;
64031;SDS011;50278;47.796;11.968;2023-02-28T12:38:41;11.98;;;8.75;;
64031;SDS011;50278;47.796;11.968;2023-02-28T12:41:14;11.07;;;9.35;;
64031;SDS011;50278;47.796;11.968;2023-02-28T12:43:44;11.45;;;9.20;;
64031;SDS011;50278;47.796;11.968;2023-02-28T12:48:50;14.00;;;8.52;;
64031;SDS011;50278;47.796;11.968;2023-02-28T12:51:20;10.25;;;8.98;;
64031;SDS011;50278;47.796;11.968;2023-02-28T12:54:08;10.80;;;9.45;;
64031;SDS011;50278;47.796;11.968;2023-02-28T12:56:52;12.70;;;9.25;;
64031;SDS011;50278;47.796;11.968;2023-02-28T12:59:37;10.75;;;9.18;;
64031;SDS011;50278;47.796;11.968;2023-02-28T13:10:47;11.32;;;8.70;;
64031;SDS011;50278;47.796;11.968;2023-02-28T13:13:19;9.30;;;8.30;;
64031;SDS011;50278;47.796;11.968;2023-02-28T13:18:43;9.50;;;8.50;;
64031;SDS011;50278;47.796;11.968;2023-02-28T13:21:29;9.73;;;8.73;;
64031;SDS011;50278;47.796;11.968;2023-02-28T13:23:56;9.73;;;8.80;;
64031;SDS011;50278;47.796;11.968;2023-02-28T13:28:59;13.70;;;9.50;;
64031;SDS011;50278;47.796;11.968;2023-02-28T13:31:27;9.27;;;8.38;;
64031;SDS011;50278;47.796;11.968;2023-02-28T13:36:31;8.75;;;7.85;;
64031;SDS011;50278;47.796;11.968;2023-02-28T13:39:01;9.05;;;8.13;;
64031;SDS011;50278;47.796;11.968;2023-02-28T13:46:29;9.35;;;8.38;;
64031;SDS011;50278;47.796;11.968;2023-02-28T13:48:55;9.95;;;8.95;;
64031;SDS011;50278;47.796;11.968;2023-02-28T13:51:28;8.57;;;7.80;;
64031;SDS011;50278;47.796;11.968;2023-02-28T13:54:29;8.32;;;7.53;;
64031;SDS011;50278;47.796;11.968;2023-02-28T14:06:21;8.98;;;8.15;;
64031;SDS011;50278;47.796;11.968;2023-02-28T14:09:02;9.38;;;8.43;;
64031;SDS011;50278;47.796;11.968;2023-02-28T14:13:59;10.18;;;9.23;;
64031;SDS011;50278;47.796;11.968;2023-02-28T14:16:26;8.57;;;7.75;;
64031;SDS011;50278;47.796;11.968;2023-02-28T14:19:03;8.38;;;7.60;;
64031;SDS011;50278;47.796;11.968;2023-02-28T14:21:50;9.27;;;8.48;;
64031;SDS011;50278;47.796;11.968;2023-02-28T14:35:40;9.48;;;8.68;;
64031;SDS011;50278;47.796;11.968;2023-02-28T14:38:44;8.60;;;7.88;;
64031;SDS011;50278;47.796;11.968;2023-02-28T14:41:14;9.00;;;8.15;;
64031;SDS011;50278;47.796;11.968;2023-02-28T14:43:50;8.40;;;7.70;;
64031;SDS011;50278;47.796;11.968;2023-02-28T14:46:20;9.93;;;9.02;;
64031;SDS011;50278;47.796;11.968;2023-02-28T14:48:48;10.13;;;9.15;;
64031;SDS011;50278;47.796;11.968;2023-02-28T14:51:18;10.55;;;9.57;;
64031;SDS011;50278;47.796;11.968;2023-02-28T14:53:55;9.50;;;8.60;;
64031;SDS011;50278;47.796;11.968;2023-02-28T14:56:34;10.85;;;9.75;;
64031;SDS011;50278;47.796;11.968;2023-02-28T14:59:02;13.88;;;11.82;;
64031;SDS011;50278;47.796;11.968;2023-02-28T15:01:28;17.33;;;15.52;;
64031;SDS011;50278;47.796;11.968;2023-02-28T15:04:16;12.35;;;11.05;;
64031;SDS011;50278;47.796;11.968;2023-02-28T15:07:09;10.45;;;9.55;;
64031;SDS011;50278;47.796;11.968;2023-02-28T15:09:38;9.25;;;8.45;;
64031;SDS011;50278;47.796;11.968;2023-02-28T15:12:03;9.63;;;8.73;;
64031;SDS011;50278;47.796;11.968;2023-02-28T15:14:29;10.10;;;9.20;;
64031;SDS011;50278;47.796;11.968;2023-02-28T15:16:59;10.07;;;9.18;;
64031;SDS011;50278;47.796;11.968;2023-02-28T15:19:29;9.60;;;8.70;;
64031;SDS011;50278;47.796;11.968;2023-02-28T15:22:07;9.05;;;8.15;;
64031;SDS011;50278;47.796;11.968;2023-02-28T15:24:41;9.80;;;8.15;;
64031;SDS011;50278;47.796;11.968;2023-02-28T15:27:11;10.10;;;9.10;;
64031;SDS011;50278;47.796;11.968;2023-02-28T15:29:56;9.02;;;8.15;;
64031;SDS011;50278;47.796;11.968;2023-02-28T15:34:52;10.25;;;9.25;;
64031;SDS011;50278;47.796;11.968;2023-02-28T15:45:59;9.90;;;8.88;;
64031;SDS011;50278;47.796;11.968;2023-02-28T15:51:07;9.95;;;9.05;;
64031;SDS011;50278;47.796;11.968;2023-02-28T15:53:51;10.98;;;9.88;;
64031;SDS011;50278;47.796;11.968;2023-02-28T15:58:59;9.98;;;9.05;;
64031;SDS011;50278;47.796;11.968;2023-02-28T16:01:31;10.68;;;9.70;;
64031;SDS011;50278;47.796;11.968;2023-02-28T16:04:18;10.02;;;9.02;;
64031;SDS011;50278;47.796;11.968;2023-02-28T16:09:30;10.38;;;9.10;;
64031;SDS011;50278;47.796;11.968;2023-02-28T16:11:56;11.27;;;10.07;;
64031;SDS011;50278;47.796;11.968;2023-02-28T16:14:27;13.80;;;10.85;;
64031;SDS011;50278;47.796;11.968;2023-02-28T16:16:56;13.27;;;10.77;;
64031;SDS011;50278;47.796;11.968;2023-02-28T16:19:27;12.82;;;10.73;;
64031;SDS011;50278;47.796;11.968;2023-02-28T16:21:53;12.18;;;10.02;;
64031;SDS011;50278;47.796;11.968;2023-02-28T16:24:18;15.15;;;9.95;;
64031;SDS011;50278;47.796;11.968;2023-02-28T16:26:45;11.43;;;9.68;;
64031;SDS011;50278;47.796;11.968;2023-02-28T16:29:14;15.43;;;11.13;;
64031;SDS011;50278;47.796;11.968;2023-02-28T16:31:46;14.48;;;11.10;;
64031;SDS011;50278;47.796;11.968;2023-02-28T16:34:11;16.15;;;12.50;;
64031;SDS011;50278;47.796;11.968;2023-02-28T16:36:37;17.08;;;12.35;;
64031;SDS011;50278;47.796;11.968;2023-02-28T16:39:02;15.23;;;11.32;;
64031;SDS011;50278;47.796;11.968;2023-02-28T16:41:28;16.27;;;12.48;;
64031;SDS011;50278;47.796;11.968;2023-02-28T16:43:55;17.05;;;13.73;;
64031;SDS011;50278;47.796;11.968;2023-02-28T16:46:27;15.15;;;11.52;;
64031;SDS011;50278;47.796;11.968;2023-02-28T16:48:56;20.73;;;16.92;;
64031;SDS011;50278;47.796;11.968;2023-02-28T16:51:22;17.75;;;13.77;;
64031;SDS011;50278;47.796;11.968;2023-02-28T16:53:47;17.00;;;12.80;;
64031;SDS011;50278;47.796;11.968;2023-02-28T16:56:20;20.35;;;12.50;;
64031;SDS011;50278;47.796;11.968;2023-02-28T16:58:48;20.73;;;13.93;;
64031;SDS011;50278;47.796;11.968;2023-02-28T17:01:16;19.05;;;14.82;;
64031;SDS011;50278;47.796;11.968;2023-02-28T17:03:47;19.17;;;14.25;;